createdAt,value
2023-05-13T00:00:38.155Z,15.5
2023-05-13T00:05:38.221Z,15.6
2023-05-13T00:10:38.162Z,15.3
2023-05-13T00:15:38.192Z,15.4
2023-05-13T00:20:38.175Z,15.3
2023-05-13T00:25:38.214Z,15.2
2023-05-13T00:30:38.192Z,15.3
2023-05-13T00:35:38.209Z,15.0
2023-05-13T00:40:38.236Z,14.9
2023-05-13T00:50:38.181Z,14.8
2023-05-13T00:55:38.195Z,14.7
2023-05-13T01:00:38.196Z,14.6
2023-05-13T01:10:38.204Z,14.5
2023-05-13T01:15:38.190Z,14.3
2023-05-13T01:25:38.180Z,14.2
2023-05-13T01:30:38.244Z,13.9
2023-05-13T01:35:38.221Z,14.2
2023-05-13T01:40:38.533Z,14.1
2023-05-13T01:45:38.213Z,14.0
2023-05-13T01:50:38.206Z,13.9
2023-05-13T02:00:38.217Z,13.7
2023-05-13T02:15:38.215Z,13.6
2023-05-13T02:25:38.211Z,13.5
2023-05-13T02:30:38.249Z,13.3
2023-05-13T02:35:38.235Z,13.4
2023-05-13T02:45:38.282Z,13.3
2023-05-13T02:55:38.233Z,13.2
2023-05-13T03:00:38.252Z,13.1
2023-05-13T03:05:38.227Z,13.0
2023-05-13T03:10:38.270Z,12.9
2023-05-13T03:15:38.244Z,12.8
2023-05-13T03:20:38.255Z,12.7
2023-05-13T03:35:38.257Z,12.6
2023-05-13T03:45:38.267Z,12.5
2023-05-13T03:50:38.268Z,12.4
2023-05-13T03:55:38.248Z,12.8
2023-05-13T04:00:38.262Z,12.6
2023-05-13T04:05:38.255Z,12.7
2023-05-13T04:25:38.278Z,12.6
2023-05-13T04:30:38.288Z,12.7
2023-05-13T04:35:38.250Z,12.8
2023-05-13T04:40:38.284Z,12.6
2023-05-13T04:45:39.715Z,12.7
2023-05-13T04:55:38.265Z,12.8
2023-05-13T05:05:38.273Z,12.9
2023-05-13T05:10:38.271Z,13.1
2023-05-13T05:15:38.305Z,13.4
2023-05-13T05:25:38.312Z,13.5
2023-05-13T05:30:38.293Z,13.7
2023-05-13T05:40:38.353Z,14.0
2023-05-13T05:45:38.320Z,14.2
2023-05-13T05:50:38.291Z,14.6
2023-05-13T05:55:38.323Z,14.2
2023-05-13T06:00:38.286Z,14.4
2023-05-13T06:05:38.300Z,14.7
2023-05-13T06:15:38.351Z,14.8
2023-05-13T06:20:38.325Z,15.5
2023-05-13T06:25:38.315Z,15.4
2023-05-13T06:30:38.340Z,15.5
2023-05-13T06:35:38.327Z,15.6
2023-05-13T06:40:38.322Z,15.5
2023-05-13T06:45:38.348Z,15.7
2023-05-13T06:50:38.329Z,15.8
2023-05-13T06:55:38.306Z,16.1
2023-05-13T07:00:38.367Z,16.3
2023-05-13T07:05:38.315Z,16.5
2023-05-13T07:10:38.368Z,16.6
2023-05-13T07:15:38.322Z,16.9
2023-05-13T07:20:38.316Z,16.8
2023-05-13T07:25:38.336Z,17.2
2023-05-13T07:30:38.351Z,17.6
2023-05-13T07:35:38.340Z,17.8
2023-05-13T07:40:38.381Z,17.7
2023-05-13T07:45:38.342Z,17.9
2023-05-13T07:50:38.373Z,18.3
2023-05-13T07:55:38.332Z,18.5
2023-05-13T08:00:38.327Z,18.6
2023-05-13T08:05:38.351Z,18.7
2023-05-13T08:10:38.336Z,19.0
2023-05-13T08:15:38.355Z,19.2
2023-05-13T08:20:38.354Z,19.6
2023-05-13T08:25:38.355Z,19.5
2023-05-13T08:30:38.357Z,19.7
2023-05-13T08:35:38.337Z,20.2
2023-05-13T08:40:38.362Z,19.9
2023-05-13T08:50:38.350Z,20.0
2023-05-13T08:55:38.362Z,20.2
2023-05-13T09:00:38.356Z,20.5
2023-05-13T09:05:38.945Z,20.8
2023-05-13T09:10:38.360Z,21.0
2023-05-13T09:15:38.409Z,20.9
2023-05-13T09:20:38.449Z,21.0
2023-05-13T09:25:38.366Z,21.2
2023-05-13T09:30:38.390Z,21.3
2023-05-13T09:35:38.407Z,21.6
2023-05-13T09:40:38.370Z,22.3
2023-05-13T09:45:38.392Z,22.0
2023-05-13T09:50:38.378Z,22.1
2023-05-13T09:55:38.390Z,22.0
2023-05-13T10:00:39.429Z,22.5
2023-05-13T10:05:38.398Z,23.9
2023-05-13T10:10:38.398Z,25.5
2023-05-13T10:15:38.386Z,26.0
2023-05-13T10:20:38.397Z,27.4
2023-05-13T10:25:38.405Z,28.4
2023-05-13T10:30:38.399Z,27.8
2023-05-13T10:35:41.181Z,30.6
2023-05-13T10:40:38.393Z,28.5
2023-05-13T10:45:38.386Z,29.9
2023-05-13T10:50:38.411Z,30.4
2023-05-13T10:55:38.400Z,30.9
2023-05-13T11:00:38.406Z,31.0
2023-05-13T11:05:38.402Z,29.6
2023-05-13T11:10:38.441Z,31.9
2023-05-13T11:15:38.479Z,29.4
2023-05-13T11:20:51.618Z,31.3
2023-05-13T11:25:38.420Z,31.9
2023-05-13T11:30:38.417Z,32.9
2023-05-13T11:35:38.436Z,31.1
2023-05-13T11:40:38.450Z,31.4
2023-05-13T11:45:38.457Z,31.9
2023-05-13T11:50:38.426Z,31.6
2023-05-13T11:55:38.449Z,32.4
2023-05-13T12:00:38.424Z,34.0
2023-05-13T12:05:38.586Z,32.7
2023-05-13T12:10:38.441Z,34.7
2023-05-13T12:15:38.475Z,33.9
2023-05-13T12:20:38.434Z,33.4
2023-05-13T12:25:38.476Z,34.9
2023-05-13T12:30:38.453Z,36.0
2023-05-13T12:35:38.435Z,36.4
2023-05-13T12:40:38.462Z,36.1
2023-05-13T12:45:41.527Z,34.1
2023-05-13T12:50:38.432Z,32.8
2023-05-13T12:55:38.464Z,33.6
2023-05-13T13:00:38.600Z,33.7
2023-05-13T13:05:38.474Z,32.8
2023-05-13T13:10:38.492Z,33.5
2023-05-13T13:15:38.512Z,32.9
2023-05-13T13:20:38.474Z,34.5
2023-05-13T13:25:38.457Z,33.6
2023-05-13T13:35:38.492Z,33.4
2023-05-13T13:40:38.476Z,34.5
2023-05-13T13:45:38.479Z,33.9
2023-05-13T13:50:38.478Z,33.5
2023-05-13T13:55:38.492Z,34.2
2023-05-13T14:00:38.471Z,34.6
2023-05-13T14:05:38.530Z,35.5
2023-05-13T14:10:38.493Z,34.3
2023-05-13T14:15:38.592Z,32.9
2023-05-13T14:20:38.510Z,32.3
2023-05-13T14:25:38.480Z,32.9
2023-05-13T14:30:38.510Z,32.6
2023-05-13T14:35:38.519Z,32.5
2023-05-13T14:40:38.496Z,33.6
2023-05-13T14:45:38.514Z,33.8
2023-05-13T14:50:39.407Z,33.2
2023-05-13T14:55:38.514Z,33.0
2023-05-13T15:00:38.578Z,34.4
2023-05-13T15:05:38.530Z,34.5
2023-05-13T15:10:38.523Z,33.2
2023-05-13T15:15:38.495Z,36.0
2023-05-13T15:20:38.515Z,31.9
2023-05-13T15:25:38.536Z,31.3
2023-05-13T15:30:38.569Z,31.8
2023-05-13T15:35:38.533Z,31.5
2023-05-13T15:40:38.507Z,33.8
2023-05-13T15:45:38.522Z,31.6
2023-05-13T15:50:38.545Z,30.6
2023-05-13T15:55:38.551Z,33.1
2023-05-13T16:00:38.537Z,32.1
2023-05-13T16:05:38.539Z,32.8
2023-05-13T16:10:39.720Z,31.1
2023-05-13T16:15:38.554Z,29.5
2023-05-13T16:20:38.538Z,29.0
2023-05-13T16:25:38.561Z,28.5
2023-05-13T16:30:38.563Z,28.2
2023-05-13T16:35:38.551Z,25.8
2023-05-13T16:40:38.558Z,25.6
2023-05-13T16:45:38.541Z,25.1
2023-05-13T16:55:38.581Z,24.7
2023-05-13T17:00:38.561Z,25.0
2023-05-13T17:05:38.573Z,24.7
2023-05-13T17:10:38.587Z,24.6
2023-05-13T17:15:38.558Z,24.4
2023-05-13T17:20:38.575Z,24.5
2023-05-13T17:25:38.565Z,23.7
2023-05-13T17:30:38.559Z,23.9
2023-05-13T17:35:38.582Z,24.4
2023-05-13T17:40:38.617Z,23.8
2023-05-13T17:45:38.662Z,23.7
2023-05-13T17:50:38.617Z,23.9
2023-05-13T17:55:38.602Z,25.5
2023-05-13T18:00:38.596Z,26.5
2023-05-13T18:05:38.656Z,27.1
2023-05-13T18:10:38.594Z,27.4
2023-05-13T18:15:38.590Z,26.7
2023-05-13T18:20:38.596Z,25.7
2023-05-13T18:25:45.418Z,26.0
2023-05-13T18:30:38.621Z,25.1
2023-05-13T18:35:40.417Z,23.6
2023-05-13T18:40:38.653Z,22.9
2023-05-13T18:45:38.664Z,22.5
2023-05-13T18:50:38.618Z,22.2
2023-05-13T19:00:38.686Z,21.8
2023-05-13T19:05:38.625Z,21.4
2023-05-13T19:10:40.123Z,21.2
2023-05-13T19:15:38.622Z,21.3
2023-05-13T19:30:38.644Z,21.2
2023-05-13T19:35:38.646Z,21.0
2023-05-13T19:40:38.665Z,20.9
2023-05-13T19:45:38.630Z,21.1
2023-05-13T19:50:38.691Z,20.9
2023-05-13T19:55:38.626Z,20.7
2023-05-13T20:00:38.671Z,20.2
2023-05-13T20:05:38.699Z,20.5
2023-05-13T20:10:38.662Z,20.6
2023-05-13T20:15:40.058Z,20.5
2023-05-13T20:25:38.671Z,20.4
2023-05-13T20:30:38.647Z,20.1
2023-05-13T20:35:38.673Z,20.2
2023-05-13T20:40:38.680Z,20.0
2023-05-13T20:45:38.734Z,19.9
2023-05-13T20:50:38.661Z,19.5
2023-05-13T20:55:38.669Z,19.4
2023-05-13T21:00:38.676Z,19.3
2023-05-13T21:05:38.700Z,18.9
2023-05-13T21:10:38.679Z,18.7
2023-05-13T21:15:38.761Z,18.5
2023-05-13T21:25:38.689Z,18.3
2023-05-13T21:35:38.681Z,18.2
2023-05-13T21:40:38.692Z,18.0
2023-05-13T21:50:38.690Z,18.2
2023-05-13T21:55:38.695Z,18.0
2023-05-13T22:15:38.702Z,17.8
2023-05-13T22:30:38.733Z,17.6
2023-05-13T22:40:38.728Z,17.5
2023-05-13T22:45:38.746Z,17.4
2023-05-13T22:50:38.712Z,17.1
2023-05-13T22:55:38.720Z,16.9
2023-05-13T23:00:38.718Z,16.6
2023-05-13T23:05:38.745Z,16.9
2023-05-13T23:25:38.722Z,16.6
2023-05-13T23:30:40.150Z,16.4
2023-05-13T23:35:38.733Z,16.3
2023-05-13T23:40:38.757Z,16.1
2023-05-13T23:45:38.756Z,15.9
2023-05-13T23:50:38.729Z,16.2
2023-05-13T23:55:38.751Z,16.1
